Time;durP1;ratioP1;P1;durP2;ratioP2;P2;SDS_P1;SDS_P2;PMS_P1;PMS_P2;Temp;Humidity;BMP_temperature;BMP_pressure;BME280_temperature;BME280_humidity;BME280_pressure;Samples;Min_cycle;Max_cycle;Signal;HPM_P1;HPM_P2
2022/07/21 00:00:32;;;;;;;;;3.50;2.50;;;;;22.54;60.65;101620.16;5077625;27;45171;-57
2022/07/21 00:02:57;;;;;;;;;2.50;2.00;;;;;22.57;60.53;101625.19;5077920;27;45400;-52
2022/07/21 00:05:23;;;;;;;;;2.25;2.25;;;;;22.59;60.32;101623.13;5078321;27;45284;-53
2022/07/21 00:07:49;;;;;;;;;2.00;2.00;;;;;22.58;60.64;101616.81;5077872;27;46777;-52
2022/07/21 00:10:15;;;;;;;;;3.00;3.00;;;;;22.58;60.34;101602.44;5077583;27;45401;-52
2022/07/21 00:12:41;;;;;;;;;3.00;3.00;;;;;22.59;60.74;101598.72;5077833;27;45372;-53
2022/07/21 00:15:08;;;;;;;;;2.75;1.50;;;;;22.55;60.38;101603.69;5076598;27;45580;-53
2022/07/21 00:17:33;;;;;;;;;2.50;2.50;;;;;22.58;60.53;101600.56;5077550;28;46036;-52
2022/07/21 00:19:59;;;;;;;;;3.50;3.50;;;;;22.60;60.60;101606.63;5077311;27;45242;-54
2022/07/21 00:22:24;;;;;;;;;3.00;3.00;;;;;22.59;60.49;101601.41;5077476;27;45204;-53
2022/07/21 00:24:49;;;;;;;;;3.25;2.50;;;;;22.58;60.71;101602.44;5077889;27;45216;-52
2022/07/21 00:27:15;;;;;;;;;3.00;3.00;;;;;22.53;60.62;101588.66;5077213;27;46140;-53
2022/07/21 00:29:40;;;;;;;;;4.00;4.00;;;;;22.53;60.87;101596.81;5076192;28;45304;-50
2022/07/21 00:32:06;;;;;;;;;5.00;3.50;;;;;22.53;60.97;101604.94;5076051;28;45245;-57
2022/07/21 00:34:33;;;;;;;;;4.50;4.50;;;;;22.42;61.09;101579.28;5077306;27;45272;-51
2022/07/21 00:36:58;;;;;;;;;8.00;4.00;;;;;22.51;61.15;101601.59;5077247;28;45331;-53
2022/07/21 00:39:23;;;;;;;;;4.50;3.00;;;;;22.48;61.50;101605.56;5077277;27;45250;-55
2022/07/21 00:41:49;;;;;;;;;4.25;3.75;;;;;22.37;61.55;101596.13;5077462;28;45337;-51
2022/07/21 00:44:26;;;;;;;;;3.50;3.50;;;;;22.45;61.08;101608.66;5077570;27;45421;-54
2022/07/21 00:46:52;;;;;;;;;2.40;2.40;;;;;22.30;61.70;101589.88;5076973;27;45476;-56
2022/07/21 00:49:19;;;;;;;;;4.00;4.00;;;;;22.31;61.53;101594.25;5077292;28;45420;-54
2022/07/21 00:51:45;;;;;;;;;4.80;3.20;;;;;22.39;61.41;101610.31;5077249;27;45219;-53
2022/07/21 00:54:11;;;;;;;;;3.75;3.00;;;;;22.36;61.72;101605.31;5077391;27;45305;-54
2022/07/21 00:56:37;;;;;;;;;4.75;4.75;;;;;22.35;61.42;101602.81;5077043;27;45523;-52
2022/07/21 00:59:02;;;;;;;;;3.25;3.25;;;;;22.22;61.77;101586.50;5077023;27;45216;-52
2022/07/21 01:01:28;;;;;;;;;3.00;3.00;;;;;22.26;61.53;101599.44;5077186;28;45363;-51
2022/07/21 01:03:54;;;;;;;;;4.00;3.25;;;;;22.29;61.67;101603.59;5077056;28;45261;-59
2022/07/21 01:06:19;;;;;;;;;6.50;3.50;;;;;22.26;61.92;101604.03;5076885;27;47392;-54
2022/07/21 01:08:44;;;;;;;;;4.25;3.75;;;;;22.22;61.93;101600.88;5076916;27;45392;-50
2022/07/21 01:11:10;;;;;;;;;6.75;5.00;;;;;22.24;61.79;101600.66;5077016;27;45359;-55
2022/07/21 01:13:41;;;;;;;;;5.50;3.75;;;;;22.24;61.50;101595.25;5077236;28;45433;-54
2022/07/21 01:16:09;;;;;;;;;2.50;2.50;;;;;22.26;61.22;101604.03;5076607;27;45238;-55
2022/07/21 01:18:35;;;;;;;;;3.20;3.20;;;;;22.26;61.45;101601.31;5076500;27;45463;-52
2022/07/21 01:21:06;;;;;;;;;7.00;4.00;;;;;22.25;61.58;101607.75;5077077;28;45466;-54
2022/07/21 01:23:32;;;;;;;;;3.50;2.25;;;;;22.25;61.68;101607.75;5077095;27;45447;-57
2022/07/21 01:25:58;;;;;;;;;3.00;3.00;;;;;22.25;61.88;101602.34;5077242;27;45344;-54
2022/07/21 01:28:23;;;;;;;;;3.00;3.00;;;;;22.25;61.74;101605.91;5080141;28;45411;-54
2022/07/21 01:30:50;;;;;;;;;7.50;4.25;;;;;22.25;61.54;101600.50;5080272;28;45331;-56
2022/07/21 01:33:16;;;;;;;;;4.25;4.25;;;;;22.13;61.61;101573.13;5080502;27;45454;-56
2022/07/21 01:35:41;;;;;;;;;2.75;2.75;;;;;22.25;61.68;101586.94;5080049;27;45447;-56
2022/07/21 01:41:28;;;;;;;;;6.75;4.75;;;;;22.26;61.73;101582.34;5080150;27;45387;-51
2022/07/21 01:43:43;;;;;;;;;2.00;2.00;;;;;22.25;61.83;101581.50;5080363;27;45250;-55
2022/07/21 01:46:12;;;;;;;;;4.50;4.00;;;;;22.24;61.59;101587.13;5080153;27;46042;-53
2022/07/21 01:48:41;;;;;;;;;5.80;3.80;;;;;22.19;61.50;101576.06;5079961;28;45425;-55
2022/07/21 01:51:07;;;;;;;;;4.75;4.50;;;;;22.20;61.52;101585.84;5080281;27;45363;-53
2022/07/21 01:53:33;;;;;;;;;4.25;4.25;;;;;22.18;62.10;101586.06;5080154;28;45530;-50
2022/07/21 01:55:58;;;;;;;;;5.00;5.00;;;;;22.15;61.75;101581.88;5079962;27;45484;-53
2022/07/21 01:58:24;;;;;;;;;3.75;3.50;;;;;22.13;62.17;101572.28;5079959;27;45347;-53
2022/07/21 02:00:49;;;;;;;;;2.50;2.50;;;;;22.16;62.24;101590.84;5079959;27;45362;-53
2022/07/21 02:03:14;;;;;;;;;8.75;5.00;;;;;22.16;61.86;101590.84;5080119;27;45366;-54
2022/07/21 02:05:40;;;;;;;;;5.50;5.00;;;;;22.16;62.05;101594.41;5079477;27;46625;-54
2022/07/21 02:08:05;;;;;;;;;4.50;3.00;;;;;22.17;61.97;101598.78;5079507;27;45287;-51
2022/07/21 02:10:30;;;;;;;;;4.75;4.75;;;;;22.17;62.36;101597.94;5079797;27;45364;-52
2022/07/21 02:12:56;;;;;;;;;3.50;3.50;;;;;22.15;61.87;101603.56;5079805;27;45423;-54
2022/07/21 02:15:21;;;;;;;;;5.00;4.75;;;;;22.15;62.49;101606.25;5079445;27;47038;-54
2022/07/21 02:17:46;;;;;;;;;4.00;4.00;;;;;22.14;62.00;101606.47;5078040;27;45368;-54
2022/07/21 02:20:12;;;;;;;;;5.00;5.00;;;;;22.13;62.50;101607.53;5079261;27;45324;-52
2022/07/21 02:22:37;;;;;;;;;5.75;5.00;;;;;22.11;62.45;101607.66;5079865;28;45430;-52
2022/07/21 02:25:02;;;;;;;;;4.00;4.00;;;;;22.11;62.16;101601.41;5079352;27;46060;-55
2022/07/21 02:27:28;;;;;;;;;5.25;5.25;;;;;22.11;62.09;101604.97;5079283;28;45384;-53
2022/07/21 02:29:53;;;;;;;;;4.50;4.50;;;;;22.05;62.51;101596.81;5078107;28;45296;-55
2022/07/21 02:32:19;;;;;;;;;8.75;5.50;;;;;22.09;62.47;101603.50;5079484;27;45296;-55
2022/07/21 02:34:44;;;;;;;;;6.25;5.00;;;;;22.08;62.61;101602.69;5078956;27;45843;-54
2022/07/21 02:37:09;;;;;;;;;6.75;5.00;;;;;22.06;62.18;101609.31;5077521;27;45372;-53
2022/07/21 02:39:35;;;;;;;;;5.25;5.00;;;;;22.04;62.50;101603.28;5078842;27;45426;-53
2022/07/21 02:42:00;;;;;;;;;13.00;8.50;;;;;22.02;62.32;101614.31;5079470;27;45241;-56
2022/07/21 02:44:25;;;;;;;;;5.00;5.00;;;;;22.01;62.32;101612.66;5079031;27;45894;-56
2022/07/21 02:46:51;;;;;;;;;5.50;5.50;;;;;22.01;62.47;101603.69;5079078;27;45431;-53
2022/07/21 02:49:16;;;;;;;;;8.25;6.50;;;;;22.03;62.07;101597.00;5078974;27;45798;-60
2022/07/21 02:51:41;;;;;;;;;8.00;7.50;;;;;22.03;62.40;101613.25;5079518;27;45392;-53
2022/07/21 02:54:07;;;;;;;;;8.00;8.00;;;;;22.06;62.28;101615.56;5078692;27;45905;-53
2022/07/21 02:56:32;;;;;;;;;6.50;6.50;;;;;22.05;62.13;101616.63;5078845;27;45244;-54
2022/07/21 02:58:57;;;;;;;;;7.50;7.50;;;;;22.02;61.76;101606.19;5079060;27;45371;-54
2022/07/21 03:01:23;;;;;;;;;10.00;10.00;;;;;22.06;61.77;101615.56;5079046;27;45443;-59
2022/07/21 03:03:48;;;;;;;;;10.75;10.00;;;;;22.08;61.67;101618.94;5078681;27;46286;-52
2022/07/21 03:06:13;;;;;;;;;9.00;9.00;;;;;22.09;61.89;101617.91;5078587;27;46131;-53
2022/07/21 03:08:39;;;;;;;;;10.50;9.75;;;;;22.12;61.65;101624.75;5078787;27;45366;-54
2022/07/21 03:11:05;;;;;;;;;10.00;10.00;;;;;22.15;61.40;101627.94;5078874;27;45311;-53
2022/07/21 03:13:30;;;;;;;;;12.50;9.50;;;;;22.18;61.16;101621.28;5078687;27;45401;-56
2022/07/21 03:15:55;;;;;;;;;11.50;11.50;;;;;22.21;61.26;101622.78;5078581;28;45376;-51
2022/07/21 03:18:21;;;;;;;;;11.25;10.25;;;;;22.22;61.10;101622.56;5078556;27;45295;-52
2022/07/21 03:20:46;;;;;;;;;11.50;9.25;;;;;22.20;61.08;101623.78;5078523;28;45335;-54
2022/07/21 03:23:12;;;;;;;;;9.50;9.50;;;;;22.22;61.42;101628.00;5078256;27;46132;-53
2022/07/21 03:25:37;;;;;;;;;11.00;9.75;;;;;22.18;61.25;101632.13;5078255;27;45327;-50
2022/07/21 03:28:03;;;;;;;;;10.50;9.25;;;;;22.15;61.29;101633.38;5078464;27;45369;-52
2022/07/21 03:30:28;;;;;;;;;13.00;12.00;;;;;22.12;61.28;101631.06;5078419;27;45431;-53
2022/07/21 03:32:54;;;;;;;;;11.00;9.75;;;;;22.06;61.49;101631.84;5078170;27;45267;-57
2022/07/21 03:35:20;;;;;;;;;12.25;12.25;;;;;22.09;61.08;101638.75;5077809;28;45871;-52
2022/07/21 03:37:52;;;;;;;;;13.50;9.25;;;;;22.09;61.16;101642.28;5078264;27;45233;-53
2022/07/21 03:40:19;;;;;;;;;13.50;13.00;;;;;22.09;61.17;101644.16;5078479;27;45458;-50
2022/07/21 03:42:45;;;;;;;;;14.25;12.50;;;;;22.08;60.96;101648.75;5077872;27;46932;-55
2022/07/21 03:45:10;;;;;;;;;15.00;13.00;;;;;22.04;61.11;101646.63;5077935;27;45141;-54
2022/07/21 03:47:36;;;;;;;;;12.25;12.25;;;;;22.02;61.69;101654.94;5078154;27;45373;-51
2022/07/21 03:50:03;;;;;;;;;16.00;13.50;;;;;21.99;61.54;101643.66;5077832;28;45487;-52
2022/07/21 03:52:29;;;;;;;;;16.75;13.75;;;;;21.99;61.42;101647.22;5077818;28;46141;-53
2022/07/21 03:55:07;;;;;;;;;12.50;12.50;;;;;21.96;61.54;101647.63;5077707;28;45439;-53
2022/07/21 03:57:50;;;;;;;;;14.00;12.25;;;;;21.96;61.51;101658.47;5077816;27;45469;-54
2022/07/21 04:00:22;;;;;;;;;17.50;15.50;;;;;21.83;61.60;101640.25;5077780;27;45329;-58
2022/07/21 04:02:47;;;;;;;;;16.00;13.00;;;;;21.94;62.03;101649.69;5077662;28;46071;-54
2022/07/21 04:05:15;;;;;;;;;12.50;12.50;;;;;21.93;62.07;101656.97;5077853;27;45483;-53
2022/07/21 04:07:42;;;;;;;;;17.25;14.00;;;;;21.92;62.16;101663.44;5077565;27;45430;-53
2022/07/21 04:10:10;;;;;;;;;14.25;12.50;;;;;21.91;62.29;101664.50;5077943;27;45417;-54
2022/07/21 04:12:36;;;;;;;;;15.00;11.75;;;;;21.91;61.92;101660.91;5077525;27;47523;-53
2022/07/21 04:15:03;;;;;;;;;15.50;12.25;;;;;21.90;61.93;101656.53;5077371;28;45301;-54
2022/07/21 04:17:28;;;;;;;;;14.00;11.75;;;;;21.89;62.11;101658.41;5077664;27;45301;-53
2022/07/21 04:19:53;;;;;;;;;11.00;10.75;;;;;21.88;62.49;101661.34;5077627;27;45313;-54
2022/07/21 04:22:19;;;;;;;;;15.25;12.00;;;;;21.86;62.34;101666.09;5077497;27;45338;-53
2022/07/21 04:24:45;;;;;;;;;16.75;14.25;;;;;21.88;62.08;101672.16;5077448;27;45504;-52
2022/07/21 04:27:10;;;;;;;;;16.25;15.00;;;;;21.88;62.33;101674.88;5076471;27;45409;-52
2022/07/21 04:29:36;;;;;;;;;19.00;13.25;;;;;21.89;62.45;101673.84;5093617;27;45440;-53
2022/07/21 04:32:01;;;;;;;;;15.25;15.25;;;;;21.87;62.30;101662.38;5077202;27;47024;-53
2022/07/21 04:34:28;;;;;;;;;18.00;18.00;;;;;21.97;62.06;101676.41;5076977;28;45368;-55
2022/07/21 04:36:53;;;;;;;;;15.25;15.25;;;;;21.98;62.27;101672.63;5076108;28;45439;-54
2022/07/21 04:39:19;;;;;;;;;18.00;15.75;;;;;22.04;62.02;101679.97;5077608;27;45491;-53
2022/07/21 04:41:44;;;;;;;;;21.67;19.67;;;;;22.05;62.18;101676.22;5077115;27;45618;-53
2022/07/21 04:44:09;;;;;;;;;19.00;17.00;;;;;22.09;62.23;101673.97;5077365;27;45788;-53
2022/07/21 04:46:35;;;;;;;;;15.00;14.75;;;;;22.02;61.77;101664.94;5077386;27;45787;-57
2022/07/21 04:49:00;;;;;;;;;21.33;20.33;;;;;22.10;61.79;101681.06;5077282;27;45545;-55
2022/07/21 04:51:26;;;;;;;;;20.00;17.33;;;;;22.10;61.65;101670.22;5077065;28;46114;-56
2022/07/21 04:53:51;;;;;;;;;20.00;16.25;;;;;22.07;62.17;101674.16;5077071;27;45265;-55
2022/07/21 04:56:16;;;;;;;;;24.00;19.50;;;;;22.09;61.73;101682.09;5077257;27;45290;-53
2022/07/21 04:58:42;;;;;;;;;15.00;13.50;;;;;22.03;61.71;101672.88;5077357;27;45448;-52
2022/07/21 05:01:07;;;;;;;;;22.67;18.67;;;;;22.08;62.13;101680.41;5077782;28;46188;-55
2022/07/21 05:03:32;;;;;;;;;19.25;16.75;;;;;22.10;61.96;101686.47;5080813;27;45312;-56
2022/07/21 05:05:58;;;;;;;;;18.50;17.75;;;;;22.11;61.62;101682.72;5080723;27;45353;-53
2022/07/21 05:08:26;;;;;;;;;17.25;16.75;;;;;22.12;61.92;101684.38;5080752;27;45320;-52
2022/07/21 05:10:51;;;;;;;;;16.00;16.00;;;;;22.12;61.84;101681.66;5080397;27;45586;-54
2022/07/21 05:13:17;;;;;;;;;21.75;18.00;;;;;22.13;61.81;101686.94;5080294;27;45428;-56
2022/07/21 05:15:42;;;;;;;;;19.25;18.75;;;;;22.14;61.74;101676.94;5080490;28;45404;-54
2022/07/21 05:18:08;;;;;;;;;17.50;16.50;;;;;22.17;61.53;101688.22;5080973;27;45552;-52
2022/07/21 05:20:33;;;;;;;;;16.25;12.25;;;;;22.23;61.31;101680.31;5080181;27;45986;-53
2022/07/21 05:22:58;;;;;;;;;20.50;20.00;;;;;22.22;61.10;101679.47;5080122;28;45454;-55
2022/07/21 05:25:24;;;;;;;;;19.00;18.00;;;;;22.29;61.32;101684.91;5080486;27;45311;-57
2022/07/21 05:27:49;;;;;;;;;22.25;18.00;;;;;22.31;61.37;101686.41;5080502;27;45396;-53
2022/07/21 05:30:15;;;;;;;;;17.25;17.25;;;;;22.31;60.99;101677.44;5080165;27;46334;-52
2022/07/21 05:32:40;;;;;;;;;18.75;16.75;;;;;22.40;61.09;101687.06;5080076;27;45316;-53
2022/07/21 05:35:10;;;;;;;;;21.50;19.75;;;;;22.45;60.77;101690.00;5080235;27;45251;-50
2022/07/21 05:37:37;;;;;;;;;19.25;18.50;;;;;22.52;60.65;101688.16;5080149;27;45410;-52
2022/07/21 05:40:03;;;;;;;;;18.50;15.75;;;;;22.58;60.58;101690.03;5079913;27;46159;-54
2022/07/21 05:42:28;;;;;;;;;20.00;18.00;;;;;22.61;60.63;101688.81;5079849;28;45315;-54
2022/07/21 05:44:55;;;;;;;;;17.50;17.50;;;;;22.71;60.52;101705.53;5080224;28;45514;-54
2022/07/21 05:47:20;;;;;;;;;19.75;18.50;;;;;22.79;59.97;101701.81;5080287;27;45255;-53
2022/07/21 05:49:45;;;;;;;;;15.50;15.50;;;;;22.80;60.15;101693.47;5079580;27;46237;-52
2022/07/21 05:52:11;;;;;;;;;17.50;16.00;;;;;22.89;59.82;101702.25;5079895;27;45319;-52
2022/07/21 05:54:36;;;;;;;;;15.75;14.00;;;;;22.88;59.72;101698.72;5080031;27;45371;-52
2022/07/21 05:57:02;;;;;;;;;18.25;16.00;;;;;23.05;59.45;101710.06;5080204;27;45217;-52
2022/07/21 05:59:28;;;;;;;;;14.25;14.25;;;;;23.20;58.97;101715.28;5079817;27;45337;-53
2022/07/21 06:01:53;;;;;;;;;22.75;17.25;;;;;23.36;58.47;101719.50;5079532;27;45360;-52
2022/07/21 06:04:19;;;;;;;;;18.75;17.25;;;;;23.47;58.05;101716.16;5079773;28;45332;-55
2022/07/21 06:06:44;;;;;;;;;21.50;18.25;;;;;23.61;57.69;101717.84;5079945;27;45469;-54
2022/07/21 06:09:10;;;;;;;;;20.25;15.00;;;;;23.73;57.45;101717.25;5079368;27;45983;-45
2022/07/21 06:11:35;;;;;;;;;16.75;15.50;;;;;23.76;57.30;101720.34;5079623;27;45332;-56
2022/07/21 06:14:00;;;;;;;;;19.50;17.00;;;;;23.78;57.25;101726.41;5078566;28;45349;-54
2022/07/21 06:16:26;;;;;;;;;22.25;18.00;;;;;23.75;57.25;101723.28;5079927;28;45415;-54
2022/07/21 06:18:51;;;;;;;;;18.75;18.75;;;;;23.69;57.89;101716.81;5079602;27;45990;-56
2022/07/21 06:21:17;;;;;;;;;20.75;17.75;;;;;23.66;57.70;101725.38;5079442;27;45315;-55
2022/07/21 06:23:43;;;;;;;;;19.25;15.75;;;;;23.59;57.61;101722.63;5079425;27;45347;-55
2022/07/21 06:26:08;;;;;;;;;24.25;20.50;;;;;23.57;57.83;101724.72;5079874;27;45323;-53
2022/07/21 06:28:33;;;;;;;;;19.75;19.00;;;;;23.52;57.97;101732.66;5079148;27;45443;-55
2022/07/21 06:30:59;;;;;;;;;21.50;16.50;;;;;23.47;58.16;101721.59;5079417;27;45337;-54
2022/07/21 06:33:24;;;;;;;;;17.75;17.75;;;;;23.48;57.98;101728.69;5079181;27;45417;-55
2022/07/21 06:35:50;;;;;;;;;19.00;18.75;;;;;23.53;57.88;101728.91;5079590;27;45245;-55
2022/07/21 06:38:15;;;;;;;;;19.75;17.75;;;;;23.61;57.97;101730.59;5079048;27;45931;-54
2022/07/21 06:40:41;;;;;;;;;27.50;21.75;;;;;23.63;57.63;101720.31;5078904;27;45410;-55
2022/07/21 06:43:06;;;;;;;;;19.25;16.75;;;;;23.79;57.47;101728.09;5079362;27;45371;-57
2022/07/21 06:45:32;;;;;;;;;16.75;15.25;;;;;23.88;57.11;101729.53;5079217;27;45309;-54
2022/07/21 06:48:08;;;;;;;;;23.25;20.00;;;;;23.92;57.26;101729.97;5079129;27;45255;-56
2022/07/21 06:50:34;;;;;;;;;19.00;18.25;;;;;24.02;56.70;101729.50;5078739;27;45312;-55
2022/07/21 06:52:59;;;;;;;;;20.25;18.00;;;;;24.11;56.81;101729.09;5078992;27;45619;-55
2022/07/21 06:55:25;;;;;;;;;21.00;19.25;;;;;24.25;56.60;101734.50;5079321;27;45247;-55
2022/07/21 06:57:51;;;;;;;;;20.50;18.00;;;;;24.37;55.74;101735.50;5078901;27;46229;-55
2022/07/21 07:00:17;;;;;;;;;22.25;20.50;;;;;24.53;55.71;101737.78;5078908;27;45241;-55
2022/07/21 07:02:42;;;;;;;;;23.00;19.50;;;;;24.63;55.36;101732.72;5078923;27;45345;-57
2022/07/21 07:05:08;;;;;;;;;24.25;20.25;;;;;24.64;55.44;101736.28;5078950;27;45343;-55
2022/07/21 07:07:34;;;;;;;;;18.50;17.00;;;;;24.68;54.71;101744.84;5078582;27;45265;-55
2022/07/21 07:10:00;;;;;;;;;21.00;20.25;;;;;24.69;54.65;101746.50;5078536;27;45398;-54
2022/07/21 07:12:25;;;;;;;;;17.25;16.00;;;;;24.68;54.99;101745.66;5078591;27;45444;-55
2022/07/21 07:14:50;;;;;;;;;22.00;19.50;;;;;24.69;55.12;101743.78;5079014;27;45466;-55
2022/07/21 07:17:20;;;;;;;;;20.00;18.75;;;;;24.66;54.64;101749.69;5078352;27;46052;-56
2022/07/21 07:19:49;;;;;;;;;18.50;16.75;;;;;24.61;54.94;101747.59;5078439;27;45510;-55
2022/07/21 07:22:15;;;;;;;;;19.75;16.50;;;;;24.48;55.31;101732.16;5078582;27;45376;-55
2022/07/21 07:24:41;;;;;;;;;19.00;17.75;;;;;24.54;54.84;101750.34;5078202;27;45225;-55
2022/07/21 07:27:06;;;;;;;;;18.25;16.25;;;;;24.18;55.13;101696.44;5078348;27;45447;-54
2022/07/21 07:29:32;;;;;;;;;22.75;18.00;;;;;24.46;55.58;101747.84;5078224;27;45310;-55
2022/07/21 07:31:58;;;;;;;;;19.25;18.00;;;;;24.44;55.66;101755.41;5078411;28;45303;-55
2022/07/21 07:34:23;;;;;;;;;22.75;19.00;;;;;24.36;54.82;101747.44;5078449;27;45211;-56
2022/07/21 07:36:49;;;;;;;;;22.50;16.75;;;;;24.41;55.67;101750.38;5077931;27;46157;-55
2022/07/21 07:39:17;;;;;;;;;22.25;17.75;;;;;24.43;55.52;101748.28;5078338;27;45442;-54
2022/07/21 07:41:43;;;;;;;;;21.50;19.00;;;;;24.51;55.54;101752.66;5078223;27;45394;-55
2022/07/21 07:44:09;;;;;;;;;19.75;18.25;;;;;24.60;55.08;101752.19;5078351;27;45311;-54
2022/07/21 07:46:34;;;;;;;;;17.25;17.25;;;;;24.72;54.89;101759.69;5078106;27;46119;-55
2022/07/21 07:49:00;;;;;;;;;22.00;18.00;;;;;24.79;54.40;101764.06;5077641;27;45363;-53
2022/07/21 07:51:25;;;;;;;;;18.25;18.00;;;;;24.85;54.23;101760.44;5077963;28;45720;-55
2022/07/21 07:53:50;;;;;;;;;20.00;19.00;;;;;24.77;54.41;101746.25;5078031;27;45473;-55
2022/07/21 07:56:16;;;;;;;;;24.75;19.50;;;;;24.89;54.58;101761.69;5077573;27;46350;-54
2022/07/21 07:58:41;;;;;;;;;18.50;17.00;;;;;24.88;54.46;101760.03;5077953;27;45225;-55
2022/07/21 08:01:07;;;;;;;;;20.00;18.25;;;;;24.92;54.70;101757.72;5078262;27;45343;-53
2022/07/21 08:03:33;;;;;;;;;21.50;19.25;;;;;24.96;54.55;101771.72;5078389;27;45508;-54
2022/07/21 08:06:03;;;;;;;;;23.25;19.50;;;;;25.04;53.90;101755.13;5077720;28;45195;-57
2022/07/21 08:08:30;;;;;;;;;19.75;18.75;;;;;25.22;53.88;101779.78;5077597;27;45513;-55
2022/07/21 08:10:56;;;;;;;;;20.50;17.75;;;;;25.19;53.54;101773.91;5077975;27;45282;-59
2022/07/21 08:13:22;;;;;;;;;22.75;18.00;;;;;25.16;53.80;101766.19;5077998;27;45488;-56
2022/07/21 08:15:48;;;;;;;;;24.25;18.50;;;;;25.13;53.66;101765.56;5077428;27;45991;-54
2022/07/21 08:18:14;;;;;;;;;26.25;22.00;;;;;25.22;53.97;101774.31;5077465;28;45886;-56
2022/07/21 08:20:40;;;;;;;;;24.00;19.25;;;;;25.20;53.98;101784.63;5093317;27;45428;-54
2022/07/21 08:23:06;;;;;;;;;20.00;20.00;;;;;25.16;53.95;101782.53;5077523;28;45499;-57
2022/07/21 08:25:31;;;;;;;;;23.25;21.00;;;;;25.23;53.30;101783.31;5075988;28;47869;-56
2022/07/21 08:27:57;;;;;;;;;25.25;23.00;;;;;25.33;53.63;101783.69;5077234;27;45478;-56
2022/07/21 08:30:23;;;;;;;;;20.50;17.50;;;;;25.45;52.92;101794.69;5077508;27;45356;-58
2022/07/21 08:32:48;;;;;;;;;22.00;20.75;;;;;25.50;52.61;101786.72;5077607;27;45404;-55
2022/07/21 08:35:14;;;;;;;;;28.75;24.50;;;;;25.62;52.98;101802.16;5076449;27;45403;-56
2022/07/21 08:37:40;;;;;;;;;22.50;20.00;;;;;25.73;52.63;101788.84;5076847;27;45343;-56
2022/07/21 08:40:08;;;;;;;;;24.00;19.75;;;;;25.84;51.88;101793.63;5077260;28;45233;-56
2022/07/21 08:42:35;;;;;;;;;26.75;20.00;;;;;25.98;51.58;101784.25;5077338;27;45426;-61
2022/07/21 08:45:00;;;;;;;;;27.00;22.25;;;;;26.32;51.28;101782.84;5076938;28;46196;-56
2022/07/21 08:47:26;;;;;;;;;21.25;19.75;;;;;26.94;50.13;101779.22;5077231;27;45319;-55
2022/07/21 08:49:53;;;;;;;;;16.00;16.00;;;;;27.52;48.98;101775.91;5077203;27;45310;-54
2022/07/21 08:52:18;;;;;;;;;21.00;17.00;;;;;28.14;47.28;101772.75;5077172;27;45490;-58
2022/07/21 08:54:44;;;;;;;;;19.75;17.75;;;;;29.85;44.22;101783.00;5076948;27;45368;-56
2022/07/21 08:57:10;;;;;;;;;26.40;23.60;;;;;30.81;41.91;101783.56;5077053;28;45384;-60
2022/07/21 08:59:35;;;;;;;;;18.75;17.00;;;;;30.87;41.87;101788.00;5077077;27;45455;-55
2022/07/21 09:02:01;;;;;;;;;26.25;20.25;;;;;30.49;42.11;101762.25;5077230;27;45251;-55
2022/07/21 09:04:34;;;;;;;;;21.75;20.00;;;;;30.96;42.21;101780.97;5076928;27;46012;-55
2022/07/21 09:07:05;;;;;;;;;26.00;21.80;;;;;31.20;41.59;101777.91;5076970;27;45481;-54
2022/07/21 09:09:33;;;;;;;;;20.40;19.20;;;;;30.87;41.32;101785.25;5076822;27;45456;-57
2022/07/21 09:12:00;;;;;;;;;23.40;20.60;;;;;30.68;41.48;101779.25;5077165;27;45281;-56
2022/07/21 09:14:30;;;;;;;;;31.40;27.00;;;;;30.17;42.45;101780.47;5076820;27;45269;-55
2022/07/21 09:16:57;;;;;;;;;20.80;20.40;;;;;30.00;42.20;101789.56;5076985;28;45404;-56
2022/07/21 09:19:33;;;;;;;;;19.40;18.80;;;;;30.90;40.81;101786.69;5076805;28;45333;-55
2022/07/21 09:22:00;;;;;;;;;24.00;22.20;;;;;31.69;39.93;101767.66;5077288;27;45351;-56
2022/07/21 09:24:29;;;;;;;;;25.60;22.80;;;;;31.33;40.02;101780.28;5076536;27;46120;-55
2022/07/21 09:27:14;;;;;;;;;22.20;19.20;;;;;30.84;41.41;101784.94;5076822;27;45470;-55
2022/07/21 09:29:46;;;;;;;;;23.60;22.00;;;;;31.08;40.31;101780.00;5076504;27;45264;-55
2022/07/21 09:32:27;;;;;;;;;21.60;19.80;;;;;30.99;40.71;101782.38;5076985;28;45393;-56
2022/07/21 09:34:58;;;;;;;;;26.00;21.40;;;;;30.67;41.34;101783.06;5076493;27;45522;-54
2022/07/21 09:37:24;;;;;;;;;23.20;18.80;;;;;30.58;41.55;101785.44;5076766;27;45391;-55
2022/07/21 09:39:51;;;;;;;;;21.00;19.40;;;;;30.73;40.38;101784.84;5076849;27;45466;-55
2022/07/21 09:42:25;;;;;;;;;23.80;19.60;;;;;30.79;40.43;101791.22;5076943;27;45461;-58
2022/07/21 09:44:57;;;;;;;;;18.40;17.80;;;;;30.60;41.18;101784.38;5076398;27;46551;-56
2022/07/21 09:47:25;;;;;;;;;20.40;19.00;;;;;30.73;40.29;101789.50;5077617;27;45406;-56
2022/07/21 09:49:52;;;;;;;;;20.00;18.00;;;;;30.74;40.47;101793.91;5080251;27;45289;-54
2022/07/21 09:52:29;;;;;;;;;23.00;22.00;;;;;30.60;41.50;101787.94;5080258;27;45511;-56
2022/07/21 09:54:59;;;;;;;;;24.20;20.20;;;;;30.27;41.67;101783.38;5079685;27;46240;-55
2022/07/21 09:57:24;;;;;;;;;24.40;19.00;;;;;32.34;38.49;101779.38;5079913;27;45281;-56
2022/07/21 09:59:51;;;;;;;;;23.00;19.00;;;;;33.26;36.59;101774.22;5079830;27;45435;-57
2022/07/21 10:02:30;;;;;;;;;24.20;18.20;;;;;33.33;37.65;101779.44;5080199;27;45478;-61
2022/07/21 10:05:08;;;;;;;;;22.20;18.40;;;;;35.89;33.11;101761.53;5079504;27;45381;-56
2022/07/21 10:07:38;;;;;;;;;17.20;17.20;;;;;38.14;30.39;101761.06;5079751;27;45227;-56
2022/07/21 10:10:05;;;;;;;;;18.00;16.80;;;;;39.91;27.48;101762.78;5079469;27;45537;-56
2022/07/21 10:12:32;;;;;;;;;21.40;18.20;;;;;40.49;28.36;101756.06;5079845;27;45415;-56
2022/07/21 10:14:57;;;;;;;;;20.60;19.00;;;;;40.21;28.05;101763.06;5079653;27;45496;-57
2022/07/21 10:17:25;;;;;;;;;20.25;17.00;;;;;41.62;25.98;101767.25;5078159;27;45359;-57
2022/07/21 10:19:59;;;;;;;;;19.60;18.00;;;;;42.91;24.48;101766.94;5079797;27;45518;-57
2022/07/21 10:22:43;;;;;;;;;15.00;13.60;;;;;43.89;25.80;101765.31;5079840;28;45485;-57
2022/07/21 10:25:10;;;;;;;;;19.60;13.80;;;;;44.68;22.87;101760.28;5079506;27;45533;-60
2022/07/21 10:27:35;;;;;;;;;19.40;17.00;;;;;42.97;23.98;101771.16;5079755;27;45474;-56
2022/07/21 10:30:03;;;;;;;;;18.75;17.25;;;;;40.99;25.17;101772.41;5079694;27;45258;-56
2022/07/21 10:32:33;;;;;;;;;14.20;14.20;;;;;40.59;25.08;101772.53;5079507;27;45400;-57
2022/07/21 10:35:04;;;;;;;;;19.80;18.60;;;;;40.23;25.72;101786.69;5079230;28;46256;-56
2022/07/21 10:37:38;;;;;;;;;18.40;15.80;;;;;41.74;24.27;101783.34;5079183;27;45357;-56
2022/07/21 10:40:06;;;;;;;;;17.80;16.20;;;;;42.83;23.05;101775.06;5079301;27;45414;-56
2022/07/21 10:42:31;;;;;;;;;18.60;16.40;;;;;43.56;22.03;101777.38;5079439;27;45464;-56
2022/07/21 10:44:57;;;;;;;;;19.00;15.00;;;;;44.33;21.65;101765.56;5079171;28;45291;-56
2022/07/21 10:47:25;;;;;;;;;16.25;13.75;;;;;44.83;20.81;101769.09;5079405;27;45236;-57
2022/07/21 10:50:00;;;;;;;;;15.20;14.80;;;;;45.24;20.69;101774.34;5078993;27;45342;-55
2022/07/21 10:52:41;;;;;;;;;13.60;13.00;;;;;45.24;20.63;101768.72;5079650;27;45280;-56
2022/07/21 10:55:09;;;;;;;;;20.60;18.40;;;;;45.42;20.87;101780.47;5078825;27;46837;-57
2022/07/21 10:57:40;;;;;;;;;14.60;12.60;;;;;45.17;21.39;101778.94;5078938;27;45260;-56
2022/07/21 11:00:27;;;;;;;;;15.80;14.40;;;;;44.73;20.51;101776.03;5078229;27;45457;-55
2022/07/21 11:02:58;;;;;;;;;13.20;10.20;;;;;44.44;20.61;101761.09;5079189;27;45446;-56
2022/07/21 11:05:27;;;;;;;;;14.40;12.80;;;;;44.01;20.83;101764.50;5078977;28;46138;-56
2022/07/21 11:08:10;;;;;;;;;15.20;15.00;;;;;43.31;21.40;101758.84;5078729;27;45470;-57
2022/07/21 11:10:37;;;;;;;;;16.00;16.00;;;;;42.55;21.97;101769.16;5078782;28;45316;-56
2022/07/21 11:13:02;;;;;;;;;16.80;16.80;;;;;40.80;23.90;101769.13;5079153;27;45446;-55
2022/07/21 11:15:43;;;;;;;;;15.25;13.00;;;;;38.45;26.11;101775.16;5078862;27;45333;-58